Latest Coastal Weather Observations for Frankston

IDV60701

Issued at 8:25 am EST Thursday 24 April 2014 (issued every 10 minutes, with the page automatically refreshed every 10 minutes)

About coastal observations | Map of coastal stations | Coastal observations for VIC | Marine services | Other Formats
Station Details ID: 086371 Name: FRANKSTON AWS Lat: -38.15 Lon: 145.12 Height: 6.0 m
Data from the previous 72 hours. | See also: Recent months at Frankston
Date/Time
EST
Temp

°C
Wind Pressure Rain
since 9am
mm
Weather Cloud Vis
km
Sea
Height
m
Swell
Dir
 
Speed
knots
Gust
knots
hPa Trend Height
m
Period
s
Dir
24/08:10am 13.5 WSW 22 26 - - - - - - - - - -
24/08:00am 14.9 WNW 19 23 - - - - - - - - - -
24/07:30am 15.9 WNW 19 22 - - - - - - - - - -
24/07:00am 16.5 NW 18 22 - - - - - - - - - -
24/06:30am 16.4 NNW 15 20 - - - - - - - - - -
24/06:00am 16.3 NNW 14 19 - - - - - - - - - -
24/05:30am 16.2 NNW 14 19 - - - - - - - - - -
24/05:00am 15.9 N 14 18 - - - - - - - - - -
24/04:30am 15.8 N 15 18 - - - - - - - - - -
24/04:00am 16.1 N 14 19 - - - - - - - - - -
24/03:30am 15.3 N 12 15 - - - - - - - - - -
24/03:00am 15.4 N 12 14 - - - - - - - - - -
24/02:30am 15.6 N 12 14 - - - - - - - - - -
24/02:00am 13.6 NNE 5 8 - - - - - - - - - -
24/01:30am 13.6 NNE 6 8 - - - - - - - - - -
24/01:00am 14.7 N 9 12 - - - - - - - - - -
24/12:30am 15.3 N 10 13 - - - - - - - - - -
24/12:00am 15.5 N 10 12 - - - - - - - - - -
 
Date/Time
EST
Temp

°C
Wind Pressure Rain
since 9am
mm
Weather Cloud Vis
km
Sea
Height
m
Swell
Dir
 
Speed
knots
Gust
knots
hPa Trend Height
m
Period
s
Dir
23/11:30pm 13.9 NNE 4 5 - - - - - - - - - -
23/11:00pm 16.1 N 6 10 - - - - - - - - - -
23/10:30pm 14.2 NNE 5 7 - - - - - - - - - -
23/10:00pm 13.8 ENE 3 5 - - - - - - - - - -
23/09:30pm 13.4 E 2 3 - - - - - - - - - -
23/09:00pm 13.7 E 2 3 - - - - - - - - - -
23/08:30pm 13.6 E 2 3 - - - - - - - - - -
23/08:00pm 13.3 ESE 2 3 - - - - - - - - - -
23/07:30pm 14.7 CALM 0 1 - - - - - - - - - -
23/07:00pm 14.2 ESE 2 2 - - - - - - - - - -
23/06:30pm 14.2 ESE 2 3 - - - - - - - - - -
23/06:00pm 14.8 CALM 0 0 - - - - - - - - - -
23/05:30pm 15.6 W 1 2 - - - - - - - - - -
23/05:00pm 15.7 WSW 4 4 - - - - - - - - - -
23/04:30pm 15.7 W 1 4 - - - - - - - - - -
23/04:00pm 15.7 CALM 0 0 - - - - - - - - - -
23/03:30pm 16.0 CALM 0 0 - - - - - - - - - -
23/03:00pm 15.8 CALM 0 1 - - - - - - - - - -
23/02:30pm 15.3 NW 2 3 - - - - - - - - - -
23/02:00pm 15.2 WNW 3 4 - - - - - - - - - -
23/01:30pm 15.3 WNW 5 6 - - - - - - - - - -
23/01:00pm 15.0 W 6 8 - - - - - - - - - -
23/12:30pm 14.9 WNW 5 7 - - - - - - - - - -
23/12:00pm 14.8 W 6 7 - - - - - - - - - -
23/11:30am 14.8 W 5 7 - - - - - - - - - -
23/11:00am 14.7 W 5 6 - - - - - - - - - -
23/10:30am 14.8 W 6 8 - - - - - - - - - -
23/10:00am 14.9 W 7 8 - - - - - - - - - -
23/09:30am 14.7 WNW 4 9 - - - - - - - - - -
23/09:00am 14.6 CALM 0 0 - - - - - - - - - -
23/08:30am 13.7 CALM 0 1 - - - - - - - - - -
23/08:00am 12.3 SE 1 2 - - - - - - - - - -
23/07:30am 12.2 ESE 1 2 - - - - - - - - - -
23/07:00am 11.6 ESE 2 3 - - - - - - - - - -
23/06:30am 11.0 ESE 2 2 - - - - - - - - - -
23/06:00am 10.6 ESE 1 2 - - - - - - - - - -
23/05:30am 12.1 SE 3 4 - - - - - - - - - -
23/05:00am 11.2 ESE 4 5 - - - - - - - - - -
23/04:30am 11.7 SE 2 3 - - - - - - - - - -
23/04:00am 11.4 SE 1 3 - - - - - - - - - -
23/03:30am 13.6 SSE 4 4 - - - - - - - - - -
23/03:00am 13.8 SSE 4 5 - - - - - - - - - -
23/02:30am 13.6 SSE 3 4 - - - - - - - - - -
23/02:00am 14.0 SSE 3 4 - - - - - - - - - -
23/01:30am 14.0 SSE 3 4 - - - - - - - - - -
23/01:00am 14.0 SSE 3 4 - - - - - - - - - -
23/12:30am 13.9 SSE 3 4 - - - - - - - - - -
23/12:00am 14.3 SSE 3 3 - - - - - - - - - -
 
Date/Time
EST
Temp

°C
Wind Pressure Rain
since 9am
mm
Weather Cloud Vis
km
Sea
Height
m
Swell
Dir
 
Speed
knots
Gust
knots
hPa Trend Height
m
Period
s
Dir
22/11:30pm 14.2 SSE 3 3 - - - - - - - - - -
22/11:00pm 14.2 SSE 3 4 - - - - - - - - - -
22/10:30pm 14.3 SSE 2 3 - - - - - - - - - -
22/10:00pm 14.3 CALM 0 0 - - - - - - - - - -
22/09:30pm 14.7 CALM 0 0 - - - - - - - - - -
22/09:00pm 15.0 CALM 0 0 - - - - - - - - - -
22/08:30pm 15.1 CALM 0 0 - - - - - - - - - -
22/08:00pm 15.1 CALM 0 0 - - - - - - - - - -
22/07:30pm 15.2 S 1 3 - - - - - - - - - -
22/07:00pm 15.4 CALM 0 0 - - - - - - - - - -
22/06:30pm 15.5 SSW 2 3 - - - - - - - - - -
22/06:00pm 15.6 SSW 1 3 - - - - - - - - - -
22/05:30pm 15.7 S 2 6 - - - - - - - - - -
22/05:00pm 15.8 CALM 0 0 - - - - - - - - - -
22/04:30pm 15.8 CALM 0 2 - - - - - - - - - -
22/04:00pm 15.7 SSW 2 4 - - - - - - - - - -
22/03:30pm 15.7 WNW 7 10 - - - - - - - - - -
22/03:00pm 16.1 NNW 5 7 - - - - - - - - - -
22/02:30pm 15.9 N 5 6 - - - - - - - - - -
22/02:00pm 15.9 N 8 10 - - - - - - - - - -
22/01:30pm 15.6 N 9 12 - - - - - - - - - -
22/01:00pm 15.6 N 11 14 - - - - - - - - - -
22/12:30pm 15.2 N 12 15 - - - - - - - - - -
22/12:00pm 14.4 N 13 17 - - - - - - - - - -
22/11:30am 15.0 N 16 19 - - - - - - - - - -
22/11:00am 15.6 N 13 17 - - - - - - - - - -
22/10:30am 15.3 N 13 18 - - - - - - - - - -
22/10:00am 15.3 N 8 13 - - - - - - - - - -
22/09:30am 15.2 N 11 15 - - - - - - - - - -
22/09:00am 14.0 NNE 7 11 - - - - - - - - - -
22/08:30am 14.9 NNE 13 18 - - - - - - - - - -
22/08:00am 13.9 N 14 17 - - - - - - - - - -
22/07:30am 14.7 NNW 15 19 - - - - - - - - - -
22/07:00am 15.5 NNW 15 18 - - - - - - - - - -
22/06:30am 17.3 NNW 16 19 - - - - - - - - - -
22/06:00am 17.9 NNW 17 25 - - - - - - - - - -
22/05:30am 18.2 NW 17 22 - - - - - - - - - -
22/05:00am 18.9 NNW 15 22 - - - - - - - - - -
22/04:30am 18.9 N 14 19 - - - - - - - - - -
22/04:00am 18.8 NNW 13 16 - - - - - - - - - -
22/03:30am 18.7 NNW 13 17 - - - - - - - - - -
22/03:00am 18.3 W 16 22 - - - - - - - - - -
22/02:30am 18.4 N 9 13 - - - - - - - - - -
22/02:00am 17.9 NNE 7 12 - - - - - - - - - -
22/01:30am 18.1 N 15 19 - - - - - - - - - -
22/01:00am 18.2 N 16 20 - - - - - - - - - -
22/12:30am 18.1 N 16 19 - - - - - - - - - -
22/12:00am 18.0 N 15 20 - - - - - - - - - -
 
Date/Time
EST
Temp

°C
Wind Pressure Rain
since 9am
mm
Weather Cloud Vis
km
Sea
Height
m
Swell
Dir
 
Speed
knots
Gust
knots
hPa Trend Height
m
Period
s
Dir
21/11:30pm 17.9 N 15 20 - - - - - - - - - -
21/11:00pm 18.0 N 16 21 - - - - - - - - - -
21/10:30pm 17.6 N 15 19 - - - - - - - - - -
21/10:00pm 17.4 NNE 13 19 - - - - - - - - - -
21/09:30pm 17.5 N 13 17 - - - - - - - - - -
21/09:00pm 17.6 N 14 18 - - - - - - - - - -
21/08:30pm 17.6 N 14 17 - - - - - - - - - -
21/08:00pm 17.5 N 13 18 - - - - - - - - - -
21/07:30pm 17.6 N 13 17 - - - - - - - - - -
21/07:00pm 17.7 N 16 23 - - - - - - - - - -
21/06:30pm 17.8 N 15 19 - - - - - - - - - -
21/06:00pm 17.9 N 13 20 - - - - - - - - - -
21/05:30pm 17.9 NNE 12 17 - - - - - - - - - -
21/05:00pm 18.0 N 16 23 - - - - - - - - - -
21/04:30pm 18.2 N 19 26 - - - - - - - - - -
21/04:00pm 18.3 N 19 25 - - - - - - - - - -
21/03:30pm 18.2 N 21 27 - - - - - - - - - -
21/03:00pm 18.0 N 19 23 - - - - - - - - - -
21/02:30pm 17.9 N 17 21 - - - - - - - - - -
21/02:00pm 18.2 N 17 23 - - - - - - - - - -
21/01:30pm 18.2 N 17 24 - - - - - - - - - -
21/01:00pm 17.9 N 17 23 - - - - - - - - - -
21/12:30pm 17.9 N 20 24 - - - - - - - - - -
21/12:00pm 17.6 N 20 26 - - - - - - - - - -
21/11:30am 17.2 N 17 22 - - - - - - - - - -
21/11:00am 16.8 N 18 23 - - - - - - - - - -
21/10:30am 16.6 N 18 22 - - - - - - - - - -
21/10:00am 16.0 N 16 20 - - - - - - - - - -
21/09:30am 15.5 N 15 19 - - - - - - - - - -
21/09:00am 14.9 N 12 15 - - - - - - - - - -
21/08:30am 14.1 NNE 8 10 - - - - - - - - - -

Other Formats:

Comma delimited format used in spreadsheet applications
http://www.bom.gov.au/fwo/IDV60701/IDV60701.94871.axf

JavaScript Object Notation format (JSON) in row-major order
http://www.bom.gov.au/fwo/IDV60701/IDV60701.94871.json